createdAt,value
2022-12-29T00:00:26.952Z,9.88
2022-12-29T00:02:54.905Z,9.88
2022-12-29T00:05:22.779Z,9.90
2022-12-29T00:07:51.869Z,9.91
2022-12-29T00:10:19.652Z,9.92
2022-12-29T00:13:04.994Z,9.91
2022-12-29T00:15:41.693Z,9.94
2022-12-29T00:18:09.930Z,9.95
2022-12-29T00:20:55.782Z,9.97
2022-12-29T00:23:42.329Z,9.83
2022-12-29T00:26:29.207Z,9.79
2022-12-29T00:29:14.438Z,9.78
2022-12-29T00:31:59.947Z,9.77
2022-12-29T00:34:45.037Z,9.77
2022-12-29T00:37:12.621Z,9.78
2022-12-29T00:39:59.144Z,9.78
2022-12-29T00:42:58.480Z,9.77
2022-12-29T00:45:25.952Z,9.75
2022-12-29T00:47:53.516Z,9.75
2022-12-29T00:50:20.073Z,9.75
2022-12-29T00:52:47.546Z,9.73
2022-12-29T00:55:17.408Z,9.73
2022-12-29T00:57:44.984Z,9.73
2022-12-29T01:00:13.379Z,9.73
2022-12-29T01:02:41.831Z,9.73
2022-12-29T01:05:09.944Z,9.74
2022-12-29T01:07:37.467Z,9.75
2022-12-29T01:10:13.163Z,9.77
2022-12-29T01:12:46.198Z,9.76
2022-12-29T01:15:14.855Z,9.77
2022-12-29T01:17:42.343Z,9.78
2022-12-29T01:20:10.902Z,9.78
2022-12-29T01:22:38.467Z,9.79
2022-12-29T01:25:06.337Z,9.78
2022-12-29T01:27:34.782Z,9.79
2022-12-29T01:30:03.859Z,9.79
2022-12-29T01:32:31.329Z,9.78
2022-12-29T01:34:58.887Z,9.78
2022-12-29T01:37:26.542Z,9.77
2022-12-29T01:39:54.014Z,9.77
2022-12-29T01:42:22.119Z,9.75
2022-12-29T01:44:51.178Z,9.75
2022-12-29T01:47:21.318Z,9.75
2022-12-29T01:49:48.985Z,9.74
2022-12-29T01:52:16.554Z,9.70
2022-12-29T01:54:44.890Z,9.69
2022-12-29T01:57:12.862Z,9.66
2022-12-29T01:59:41.596Z,9.64
2022-12-29T02:02:09.120Z,9.61
2022-12-29T02:04:38.165Z,9.60
2022-12-29T02:07:06.760Z,9.59
2022-12-29T02:09:34.865Z,9.57
2022-12-29T02:12:02.402Z,9.56
2022-12-29T02:14:29.889Z,9.53
2022-12-29T02:17:00.814Z,9.52
2022-12-29T02:19:38.078Z,9.52
2022-12-29T02:22:09.024Z,9.51
2022-12-29T02:24:44.911Z,9.52
2022-12-29T02:27:17.579Z,9.52
2022-12-29T02:29:49.351Z,9.53
2022-12-29T02:32:19.866Z,9.54
2022-12-29T02:34:48.960Z,9.57
2022-12-29T02:37:18.740Z,9.59
2022-12-29T02:39:48.075Z,9.61
2022-12-29T02:42:16.227Z,9.64
2022-12-29T02:44:47.057Z,9.67
2022-12-29T02:47:16.582Z,9.69
2022-12-29T02:49:48.445Z,9.70
2022-12-29T02:52:16.701Z,9.72
2022-12-29T02:54:43.250Z,9.73
2022-12-29T02:57:12.505Z,9.75
2022-12-29T02:59:40.028Z,9.78
2022-12-29T03:02:21.552Z,9.79
2022-12-29T03:04:55.987Z,9.80
2022-12-29T03:07:25.096Z,9.80
2022-12-29T03:09:54.568Z,9.81
2022-12-29T03:12:25.093Z,9.81
2022-12-29T03:15:12.189Z,9.80
2022-12-29T03:17:42.763Z,9.79
2022-12-29T03:20:12.728Z,9.78
2022-12-29T03:22:41.227Z,9.77
2022-12-29T03:25:11.255Z,9.78
2022-12-29T03:27:39.291Z,9.78
2022-12-29T03:30:07.490Z,9.79
2022-12-29T03:32:35.822Z,9.82
2022-12-29T03:35:03.860Z,9.83
2022-12-29T03:37:33.363Z,9.86
2022-12-29T03:40:01.711Z,9.88
2022-12-29T03:42:29.720Z,9.90
2022-12-29T03:44:58.084Z,9.93
2022-12-29T03:47:25.974Z,9.96
2022-12-29T03:49:53.603Z,9.96
2022-12-29T03:52:21.099Z,9.99
2022-12-29T03:54:50.180Z,10.00
2022-12-29T03:57:17.790Z,10.01
2022-12-29T03:59:45.327Z,10.02
2022-12-29T04:02:12.953Z,10.03
2022-12-29T04:04:40.564Z,10.03
2022-12-29T04:07:08.090Z,10.02
2022-12-29T04:09:35.682Z,10.02
2022-12-29T04:12:04.797Z,10.00
2022-12-29T04:14:32.284Z,9.99
2022-12-29T04:17:00.152Z,9.98
2022-12-29T04:19:27.671Z,9.99
2022-12-29T04:21:55.132Z,9.99
2022-12-29T04:24:22.610Z,10.02
2022-12-29T04:26:50.328Z,10.03
2022-12-29T04:29:19.373Z,10.05
2022-12-29T04:31:47.039Z,10.03
2022-12-29T04:34:14.640Z,10.03
2022-12-29T04:36:42.143Z,10.03
2022-12-29T04:39:09.956Z,10.01
2022-12-29T04:41:37.542Z,10.00
2022-12-29T04:44:05.201Z,10.00
2022-12-29T04:46:34.261Z,9.99
2022-12-29T04:49:05.573Z,9.99
2022-12-29T04:51:33.063Z,9.99
2022-12-29T04:54:01.231Z,9.99
2022-12-29T04:56:28.784Z,9.98
2022-12-29T04:58:56.384Z,9.98
2022-12-29T05:01:23.892Z,9.98
2022-12-29T05:03:53.597Z,9.98
2022-12-29T05:06:21.148Z,9.97
2022-12-29T05:08:48.644Z,9.97
2022-12-29T05:11:16.141Z,9.98
2022-12-29T05:13:43.647Z,9.97
2022-12-29T05:16:11.169Z,9.98
2022-12-29T05:18:39.008Z,9.98
2022-12-29T05:21:08.002Z,9.97
2022-12-29T05:23:35.481Z,9.97
2022-12-29T05:26:03.014Z,9.97
2022-12-29T05:28:30.908Z,9.96
2022-12-29T05:30:58.403Z,9.93
2022-12-29T05:33:25.929Z,9.89
2022-12-29T05:35:53.493Z,9.87
2022-12-29T05:38:22.378Z,9.83
2022-12-29T05:40:49.866Z,9.80
2022-12-29T05:43:17.438Z,9.77
2022-12-29T05:45:46.373Z,9.75
2022-12-29T05:48:13.985Z,9.72
2022-12-29T05:50:41.510Z,9.69
2022-12-29T05:53:09.121Z,9.66
2022-12-29T05:55:53.026Z,9.62
2022-12-29T05:58:20.743Z,9.59
2022-12-29T06:00:48.447Z,9.56
2022-12-29T06:03:16.097Z,9.52
2022-12-29T06:05:44.250Z,9.51
2022-12-29T06:08:11.959Z,9.46
2022-12-29T06:10:40.929Z,9.44
2022-12-29T06:13:08.463Z,9.41
2022-12-29T06:15:36.083Z,9.37
2022-12-29T06:18:03.725Z,9.36
2022-12-29T06:20:31.256Z,9.32
2022-12-29T06:22:58.789Z,9.30
2022-12-29T06:25:26.405Z,9.25
2022-12-29T06:27:55.301Z,9.22
2022-12-29T06:30:23.035Z,9.18
2022-12-29T06:32:50.879Z,9.16
2022-12-29T06:35:18.595Z,9.15
2022-12-29T06:37:46.328Z,9.12
2022-12-29T06:40:13.986Z,9.11
2022-12-29T06:42:41.530Z,9.10
2022-12-29T06:45:11.048Z,9.08
2022-12-29T06:47:38.637Z,9.09
2022-12-29T06:50:06.606Z,9.07
2022-12-29T06:52:34.589Z,9.07
2022-12-29T06:55:02.161Z,9.07
2022-12-29T06:57:29.688Z,9.08
2022-12-29T06:59:57.698Z,9.10
2022-12-29T07:02:27.182Z,9.10
2022-12-29T07:04:54.899Z,9.12
2022-12-29T07:07:24.830Z,9.13
2022-12-29T07:09:54.432Z,9.16
2022-12-29T07:12:22.032Z,9.16
2022-12-29T07:14:49.847Z,9.17
2022-12-29T07:17:17.406Z,9.18
2022-12-29T07:19:46.512Z,9.16
2022-12-29T07:22:14.126Z,9.17
2022-12-29T07:24:41.726Z,9.16
2022-12-29T07:27:09.314Z,9.17
2022-12-29T07:29:39.262Z,9.16
2022-12-29T07:32:06.918Z,9.17
2022-12-29T07:34:34.851Z,9.17
2022-12-29T07:37:03.793Z,9.17
2022-12-29T07:39:31.510Z,9.17
2022-12-29T07:42:04.593Z,9.15
2022-12-29T07:44:32.825Z,9.14
2022-12-29T07:47:03.770Z,9.14
2022-12-29T07:49:33.558Z,9.15
2022-12-29T07:52:01.114Z,9.14
2022-12-29T07:54:30.079Z,9.13
2022-12-29T07:56:58.539Z,9.11
2022-12-29T07:59:28.505Z,9.09
2022-12-29T08:01:56.086Z,9.10
2022-12-29T08:04:23.712Z,9.09
2022-12-29T08:06:51.752Z,9.09
2022-12-29T08:09:22.733Z,9.07
2022-12-29T08:11:53.464Z,9.04
2022-12-29T08:14:20.977Z,9.01
2022-12-29T08:16:48.638Z,8.98
2022-12-29T08:19:16.440Z,8.96
2022-12-29T08:21:43.994Z,8.95
2022-12-29T08:24:11.765Z,8.92
2022-12-29T08:26:39.440Z,8.95
2022-12-29T08:29:08.491Z,8.94
2022-12-29T08:31:36.150Z,8.93
2022-12-29T08:34:04.426Z,8.94
2022-12-29T08:36:32.255Z,8.95
2022-12-29T08:38:59.906Z,8.97
2022-12-29T08:41:27.452Z,8.99
2022-12-29T08:43:55.047Z,9.03
2022-12-29T08:46:24.270Z,9.06
2022-12-29T08:48:51.850Z,9.12
2022-12-29T08:51:24.508Z,9.16
2022-12-29T08:53:52.742Z,9.21
2022-12-29T08:56:20.300Z,9.26
2022-12-29T08:58:47.824Z,9.31
2022-12-29T09:01:15.421Z,9.33
2022-12-29T09:06:38.103Z,9.39
2022-12-29T09:09:07.694Z,9.41
2022-12-29T09:11:35.308Z,9.40
2022-12-29T09:14:02.902Z,9.40
2022-12-29T09:16:30.436Z,9.41
2022-12-29T09:18:59.517Z,9.43
2022-12-29T09:21:27.110Z,9.45
2022-12-29T09:23:54.823Z,9.46
2022-12-29T09:26:22.464Z,9.49
2022-12-29T09:28:50.053Z,9.50
2022-12-29T09:31:17.725Z,9.51
2022-12-29T09:33:45.311Z,9.52
2022-12-29T09:36:14.281Z,9.55
2022-12-29T09:38:41.778Z,9.58
2022-12-29T09:41:16.813Z,9.58
2022-12-29T09:43:57.034Z,9.58
2022-12-29T09:46:26.388Z,9.60
2022-12-29T09:48:55.685Z,9.58
2022-12-29T09:51:24.956Z,9.60
2022-12-29T09:53:53.137Z,9.59
2022-12-29T09:56:22.064Z,9.56
2022-12-29T09:58:51.049Z,9.53
2022-12-29T10:01:20.470Z,9.52
2022-12-29T10:03:49.092Z,9.50
2022-12-29T10:06:18.130Z,9.47
2022-12-29T10:08:51.298Z,9.48
2022-12-29T10:11:22.686Z,9.48
2022-12-29T10:13:55.869Z,9.47
2022-12-29T10:16:25.993Z,9.47
2022-12-29T10:19:01.392Z,9.48
2022-12-29T10:21:30.899Z,9.52
2022-12-29T10:23:59.783Z,9.54
2022-12-29T10:26:29.651Z,9.57
2022-12-29T10:28:59.714Z,9.59
2022-12-29T10:31:27.860Z,9.61
2022-12-29T10:33:56.234Z,9.63
2022-12-29T10:36:25.508Z,9.64
2022-12-29T10:39:05.594Z,9.64
2022-12-29T10:41:37.376Z,9.64
2022-12-29T10:44:05.130Z,9.64
2022-12-29T10:46:37.362Z,9.62
2022-12-29T10:49:07.147Z,9.63
2022-12-29T10:51:35.465Z,9.60
2022-12-29T10:54:04.296Z,9.60
2022-12-29T10:56:36.459Z,9.56
2022-12-29T10:59:08.270Z,9.54
2022-12-29T11:01:37.523Z,9.51
2022-12-29T11:04:05.484Z,9.50
2022-12-29T11:06:33.141Z,9.48
2022-12-29T11:09:01.426Z,9.47
2022-12-29T11:11:29.564Z,9.48
2022-12-29T11:14:01.147Z,9.48
2022-12-29T11:16:35.086Z,9.48
2022-12-29T11:19:03.129Z,9.48
2022-12-29T11:21:34.000Z,9.46
2022-12-29T11:24:02.043Z,9.46
2022-12-29T11:26:34.054Z,9.46
2022-12-29T11:29:18.419Z,9.44
2022-12-29T11:31:47.976Z,9.45
2022-12-29T11:34:18.973Z,9.46
2022-12-29T11:36:46.562Z,9.46
2022-12-29T11:39:23.952Z,9.46
2022-12-29T11:41:52.916Z,9.44
2022-12-29T11:44:20.476Z,9.45
2022-12-29T11:46:50.517Z,9.44
2022-12-29T11:49:21.269Z,9.44
2022-12-29T11:51:48.899Z,9.41
2022-12-29T11:54:17.701Z,9.41
2022-12-29T11:56:45.303Z,9.39
2022-12-29T11:59:27.825Z,9.38
2022-12-29T12:01:56.879Z,9.37
2022-12-29T12:04:25.343Z,9.36
2022-12-29T12:06:55.750Z,9.36
2022-12-29T12:09:24.263Z,9.37
2022-12-29T12:11:52.497Z,9.40
2022-12-29T12:14:20.332Z,9.41
2022-12-29T12:16:49.093Z,9.42
2022-12-29T12:19:26.589Z,9.43
2022-12-29T12:21:54.660Z,9.43
2022-12-29T12:24:31.555Z,9.44
2022-12-29T12:27:00.926Z,9.46
2022-12-29T12:29:30.968Z,9.45
2022-12-29T12:31:59.417Z,9.43
2022-12-29T12:34:30.648Z,9.44
2022-12-29T12:37:16.076Z,9.44
2022-12-29T12:39:46.571Z,9.42
2022-12-29T12:42:18.656Z,9.40
2022-12-29T12:44:48.293Z,9.36
2022-12-29T12:47:25.661Z,9.36
2022-12-29T12:50:17.093Z,9.34
2022-12-29T12:53:02.402Z,9.31
2022-12-29T12:55:35.868Z,9.30
2022-12-29T12:58:04.834Z,9.27
2022-12-29T13:00:32.825Z,9.24
2022-12-29T13:03:05.923Z,9.22
2022-12-29T13:05:36.551Z,9.19
2022-12-29T13:08:08.567Z,9.15
2022-12-29T13:10:41.323Z,9.14
2022-12-29T13:13:17.012Z,9.13
2022-12-29T13:15:45.921Z,9.10
2022-12-29T13:18:16.104Z,9.10
2022-12-29T13:20:44.685Z,9.10
2022-12-29T13:23:13.607Z,9.10
2022-12-29T13:25:44.080Z,9.11
2022-12-29T13:28:12.927Z,9.11
2022-12-29T13:30:41.504Z,9.12
2022-12-29T13:33:10.175Z,9.11
2022-12-29T13:35:42.035Z,9.11
2022-12-29T13:38:11.530Z,9.09
2022-12-29T13:40:41.151Z,9.10
2022-12-29T13:43:10.095Z,9.10
2022-12-29T13:45:37.780Z,9.10
2022-12-29T13:48:06.753Z,9.10
2022-12-29T13:50:35.654Z,9.11
2022-12-29T13:53:04.681Z,9.11
2022-12-29T13:55:33.865Z,9.11
2022-12-29T13:58:03.125Z,9.12
2022-12-29T14:00:33.594Z,9.13
2022-12-29T14:03:11.322Z,9.16
2022-12-29T14:05:39.009Z,9.16
2022-12-29T14:08:07.000Z,9.17
2022-12-29T14:10:36.268Z,9.21
2022-12-29T14:13:07.523Z,9.22
2022-12-29T14:15:42.020Z,9.22
2022-12-29T14:18:16.772Z,9.21
2022-12-29T14:20:57.809Z,9.23
2022-12-29T14:23:29.909Z,9.21
2022-12-29T14:26:01.944Z,9.20
2022-12-29T14:28:30.036Z,9.21
2022-12-29T14:30:59.269Z,9.19
2022-12-29T14:33:28.091Z,9.19
2022-12-29T14:35:55.788Z,9.19
2022-12-29T14:38:24.622Z,9.19
2022-12-29T14:40:52.242Z,9.21
2022-12-29T14:43:21.572Z,9.21
2022-12-29T14:45:53.693Z,9.21
2022-12-29T14:48:30.889Z,9.18
2022-12-29T14:50:58.762Z,9.19
2022-12-29T14:53:43.473Z,9.19
2022-12-29T14:56:11.048Z,9.19
2022-12-29T14:58:40.709Z,9.19
2022-12-29T15:01:14.760Z,9.18
2022-12-29T15:03:45.443Z,9.17
2022-12-29T15:06:13.517Z,9.18
2022-12-29T15:08:41.897Z,9.19
2022-12-29T15:11:12.284Z,9.18
2022-12-29T15:13:40.926Z,9.17
2022-12-29T15:16:15.472Z,9.17
2022-12-29T15:18:44.434Z,9.16
2022-12-29T15:21:13.960Z,9.15
2022-12-29T15:23:41.571Z,9.14
2022-12-29T15:26:09.519Z,9.14
2022-12-29T15:28:40.798Z,9.12
2022-12-29T15:31:11.509Z,9.11
2022-12-29T15:33:39.417Z,9.09
2022-12-29T15:36:12.155Z,9.09
2022-12-29T15:38:40.669Z,9.07
2022-12-29T15:41:08.991Z,9.06
2022-12-29T15:43:51.439Z,9.05
2022-12-29T15:46:19.126Z,9.01
2022-12-29T15:48:46.761Z,8.98
2022-12-29T15:51:21.272Z,8.95
2022-12-29T15:53:49.290Z,8.91
2022-12-29T15:56:16.937Z,8.87
2022-12-29T15:58:46.039Z,8.83
2022-12-29T16:01:19.254Z,8.80
2022-12-29T16:03:46.985Z,8.78
2022-12-29T16:06:28.429Z,8.75
2022-12-29T16:08:57.990Z,8.73
2022-12-29T16:11:26.187Z,8.71
2022-12-29T16:13:53.847Z,8.69
2022-12-29T16:16:22.129Z,8.69
2022-12-29T16:18:56.731Z,8.67
2022-12-29T16:21:25.870Z,8.64
2022-12-29T16:23:55.369Z,8.62
2022-12-29T16:26:23.302Z,8.62
2022-12-29T16:28:52.346Z,8.59
2022-12-29T16:31:21.289Z,8.59
2022-12-29T16:33:49.695Z,8.59
2022-12-29T16:36:27.257Z,8.59
2022-12-29T16:39:06.267Z,8.61
2022-12-29T16:41:33.861Z,8.61
2022-12-29T16:44:16.200Z,8.61
2022-12-29T16:46:45.043Z,8.63
2022-12-29T16:49:22.821Z,8.60
2022-12-29T16:51:51.662Z,8.61
2022-12-29T16:54:22.058Z,8.63
2022-12-29T16:56:49.537Z,8.64
2022-12-29T16:59:24.748Z,8.63
2022-12-29T17:01:52.361Z,8.65
2022-12-29T17:04:19.973Z,8.65
2022-12-29T17:06:47.653Z,8.66
2022-12-29T17:09:21.373Z,8.66
2022-12-29T17:12:05.407Z,8.67
2022-12-29T17:14:40.016Z,8.67
2022-12-29T17:17:08.018Z,8.67
2022-12-29T17:19:36.180Z,8.68
2022-12-29T17:22:03.887Z,8.67
2022-12-29T17:24:32.827Z,8.68
2022-12-29T17:27:00.856Z,8.67
2022-12-29T17:29:32.395Z,8.68
2022-12-29T17:32:00.112Z,8.69
2022-12-29T17:34:27.688Z,8.67
2022-12-29T17:36:55.168Z,8.68
2022-12-29T17:39:22.704Z,8.69
2022-12-29T17:41:51.664Z,8.68
2022-12-29T17:44:20.076Z,8.68
2022-12-29T17:46:47.961Z,8.68
2022-12-29T17:49:15.948Z,8.67
2022-12-29T17:51:43.644Z,8.67
2022-12-29T17:54:17.138Z,8.69
2022-12-29T17:56:44.649Z,8.66
2022-12-29T18:01:31.041Z,9.30
2022-12-29T18:04:02.067Z,9.47
2022-12-29T18:06:29.854Z,9.59
2022-12-29T18:08:57.593Z,9.68
2022-12-29T18:11:26.329Z,9.76
2022-12-29T18:13:54.597Z,9.80
2022-12-29T18:16:23.192Z,9.84
2022-12-29T18:18:52.405Z,9.90
2022-12-29T18:21:21.101Z,9.90
2022-12-29T18:23:49.600Z,9.92
2022-12-29T18:26:23.885Z,9.90
2022-12-29T18:28:55.394Z,9.93
2022-12-29T18:31:25.202Z,9.93
2022-12-29T18:33:55.247Z,9.93
2022-12-29T18:36:23.233Z,9.90
2022-12-29T18:38:53.213Z,9.92
2022-12-29T18:41:23.085Z,9.90
2022-12-29T18:43:51.073Z,9.87
2022-12-29T18:46:22.981Z,9.83
2022-12-29T18:48:51.774Z,9.82
2022-12-29T18:51:22.815Z,9.82
2022-12-29T18:53:52.388Z,9.78
2022-12-29T18:56:20.947Z,9.80
2022-12-29T18:58:48.693Z,9.78
2022-12-29T19:01:20.404Z,9.75
2022-12-29T19:03:48.899Z,9.77
2022-12-29T19:06:16.687Z,9.78
2022-12-29T19:08:45.805Z,9.77
2022-12-29T19:11:13.539Z,9.78
2022-12-29T19:13:41.227Z,9.77
2022-12-29T19:16:10.378Z,9.74
2022-12-29T19:18:50.937Z,9.71
2022-12-29T19:21:26.270Z,9.66
2022-12-29T19:23:55.465Z,9.71
2022-12-29T19:26:30.479Z,9.68
2022-12-29T19:28:58.299Z,9.66
2022-12-29T19:31:26.093Z,9.63
2022-12-29T19:33:53.951Z,9.64
2022-12-29T19:36:22.362Z,9.61
2022-12-29T19:38:50.201Z,9.57
2022-12-29T19:41:19.303Z,9.56
2022-12-29T19:43:46.993Z,9.60
2022-12-29T19:46:17.856Z,9.59
2022-12-29T19:48:45.606Z,9.62
2022-12-29T19:51:15.530Z,9.61
2022-12-29T19:53:43.204Z,9.60
2022-12-29T19:56:11.655Z,9.59
2022-12-29T19:58:46.603Z,9.56
2022-12-29T20:01:17.544Z,9.60
2022-12-29T20:03:45.541Z,9.60
2022-12-29T20:06:13.751Z,9.58
2022-12-29T20:08:41.643Z,9.58
2022-12-29T20:11:12.131Z,9.57
2022-12-29T20:13:41.961Z,9.55
2022-12-29T20:16:12.838Z,9.57
2022-12-29T20:18:40.735Z,9.54
2022-12-29T20:21:10.276Z,9.50
2022-12-29T20:23:39.254Z,9.48
2022-12-29T20:26:08.967Z,9.48
2022-12-29T20:28:36.816Z,9.46
2022-12-29T20:31:08.121Z,9.44
2022-12-29T20:33:37.108Z,9.46
2022-12-29T20:36:07.182Z,9.45
2022-12-29T20:38:35.130Z,9.42
2022-12-29T20:41:02.871Z,9.43
2022-12-29T20:43:30.566Z,9.41
2022-12-29T20:45:58.329Z,9.41
2022-12-29T20:48:27.516Z,9.40
2022-12-29T20:50:59.257Z,9.39
2022-12-29T20:53:27.523Z,9.41
2022-12-29T20:55:55.294Z,9.42
2022-12-29T20:58:24.259Z,9.42
2022-12-29T21:00:52.955Z,9.44
2022-12-29T21:03:20.783Z,9.46
2022-12-29T21:05:49.851Z,9.45
2022-12-29T21:08:17.517Z,9.39
2022-12-29T21:10:48.237Z,9.33
2022-12-29T21:13:16.561Z,9.30
2022-12-29T21:15:44.336Z,9.29
2022-12-29T21:18:12.111Z,9.27
2022-12-29T21:20:39.815Z,9.29
2022-12-29T21:23:09.127Z,9.32
2022-12-29T21:25:38.004Z,9.30
2022-12-29T21:28:05.818Z,9.29
2022-12-29T21:30:33.788Z,9.25
2022-12-29T21:33:01.578Z,9.25
2022-12-29T21:35:29.499Z,9.27
2022-12-29T21:37:57.518Z,9.23
2022-12-29T21:40:27.096Z,9.26
2022-12-29T21:42:54.786Z,9.25
2022-12-29T21:45:27.792Z,9.27
2022-12-29T21:48:22.724Z,9.29
2022-12-29T21:51:10.255Z,9.23
2022-12-29T21:53:39.730Z,9.25
2022-12-29T21:56:11.178Z,9.18
2022-12-29T21:58:57.163Z,9.16
2022-12-29T22:01:43.530Z,9.08
2022-12-29T22:04:30.716Z,9.13
2022-12-29T22:07:16.269Z,9.12
2022-12-29T22:10:01.372Z,9.12
2022-12-29T22:12:49.410Z,9.11
2022-12-29T22:15:17.253Z,9.08
2022-12-29T22:17:48.828Z,9.08
2022-12-29T22:20:17.560Z,9.03
2022-12-29T22:22:45.350Z,9.03
2022-12-29T22:25:13.129Z,9.02
2022-12-29T22:27:42.426Z,8.99
2022-12-29T22:30:10.961Z,8.98
2022-12-29T22:32:38.886Z,8.99
2022-12-29T22:35:08.519Z,8.99
2022-12-29T22:37:40.067Z,9.00
2022-12-29T22:40:09.931Z,9.01
2022-12-29T22:42:38.045Z,9.02
2022-12-29T22:45:08.331Z,9.03
2022-12-29T22:47:36.254Z,9.03
2022-12-29T22:50:04.295Z,9.02
2022-12-29T22:52:31.999Z,9.03
2022-12-29T22:55:06.104Z,9.01
2022-12-29T22:57:34.626Z,9.02
2022-12-29T23:00:02.676Z,8.98
2022-12-29T23:02:31.904Z,8.98
2022-12-29T23:05:03.642Z,8.96
2022-12-29T23:07:31.998Z,8.98
2022-12-29T23:09:59.758Z,8.99
2022-12-29T23:12:30.278Z,8.98
2022-12-29T23:14:58.026Z,8.99
2022-12-29T23:17:26.218Z,8.95
2022-12-29T23:19:55.676Z,8.93
2022-12-29T23:22:25.056Z,8.93
2022-12-29T23:24:52.875Z,8.91
2022-12-29T23:27:20.527Z,8.94
2022-12-29T23:29:48.278Z,8.93
2022-12-29T23:32:15.943Z,8.93
2022-12-29T23:34:43.660Z,8.91
2022-12-29T23:37:13.028Z,8.90
2022-12-29T23:39:40.796Z,8.88
2022-12-29T23:42:08.717Z,8.88
2022-12-29T23:44:36.489Z,8.86
2022-12-29T23:47:04.355Z,8.86
2022-12-29T23:49:32.240Z,8.85
2022-12-29T23:51:59.974Z,8.87
2022-12-29T23:54:29.040Z,8.90
2022-12-29T23:56:56.810Z,8.93
2022-12-29T23:59:24.652Z,8.86
